sensor_id;sensor_type;location;lat;lon;timestamp;P1;durP1;ratioP1;P2;durP2;ratioP2
49193;SDS011;35029;50.804;12.866;2024-03-07T00:00:35;22.92;;;17.30;;
49193;SDS011;35029;50.804;12.866;2024-03-07T00:03:01;27.05;;;19.38;;
49193;SDS011;35029;50.804;12.866;2024-03-07T00:05:27;22.33;;;16.08;;
49193;SDS011;35029;50.804;12.866;2024-03-07T00:07:55;22.75;;;17.75;;
49193;SDS011;35029;50.804;12.866;2024-03-07T00:10:21;22.15;;;17.42;;
49193;SDS011;35029;50.804;12.866;2024-03-07T00:12:48;26.45;;;18.58;;
49193;SDS011;35029;50.804;12.866;2024-03-07T00:15:14;25.73;;;18.83;;
49193;SDS011;35029;50.804;12.866;2024-03-07T00:17:41;27.17;;;19.38;;
49193;SDS011;35029;50.804;12.866;2024-03-07T00:20:07;26.08;;;19.77;;
49193;SDS011;35029;50.804;12.866;2024-03-07T00:22:42;24.83;;;19.20;;
49193;SDS011;35029;50.804;12.866;2024-03-07T00:25:08;29.63;;;20.17;;
49193;SDS011;35029;50.804;12.866;2024-03-07T00:27:35;24.80;;;18.25;;
49193;SDS011;35029;50.804;12.866;2024-03-07T00:30:05;26.05;;;19.88;;
49193;SDS011;35029;50.804;12.866;2024-03-07T00:32:33;26.88;;;19.60;;
49193;SDS011;35029;50.804;12.866;2024-03-07T00:35:04;26.02;;;19.88;;
49193;SDS011;35029;50.804;12.866;2024-03-07T00:37:34;24.45;;;19.40;;
49193;SDS011;35029;50.804;12.866;2024-03-07T00:39:59;27.48;;;20.10;;
49193;SDS011;35029;50.804;12.866;2024-03-07T00:42:25;28.50;;;19.88;;
49193;SDS011;35029;50.804;12.866;2024-03-07T00:44:55;23.60;;;18.27;;
49193;SDS011;35029;50.804;12.866;2024-03-07T00:47:21;26.83;;;19.30;;
49193;SDS011;35029;50.804;12.866;2024-03-07T00:49:46;24.48;;;18.50;;
49193;SDS011;35029;50.804;12.866;2024-03-07T00:52:12;26.95;;;19.90;;
49193;SDS011;35029;50.804;12.866;2024-03-07T00:54:38;27.85;;;19.25;;
49193;SDS011;35029;50.804;12.866;2024-03-07T00:57:04;24.10;;;19.17;;
49193;SDS011;35029;50.804;12.866;2024-03-07T00:59:30;26.48;;;19.15;;
49193;SDS011;35029;50.804;12.866;2024-03-07T01:01:57;27.52;;;19.98;;
49193;SDS011;35029;50.804;12.866;2024-03-07T01:04:24;27.77;;;19.15;;
49193;SDS011;35029;50.804;12.866;2024-03-07T01:09:21;27.23;;;20.23;;
49193;SDS011;35029;50.804;12.866;2024-03-07T01:11:48;28.63;;;20.65;;
49193;SDS011;35029;50.804;12.866;2024-03-07T01:14:15;27.05;;;21.40;;
49193;SDS011;35029;50.804;12.866;2024-03-07T01:16:41;28.60;;;20.52;;
49193;SDS011;35029;50.804;12.866;2024-03-07T01:19:07;28.45;;;20.02;;
49193;SDS011;35029;50.804;12.866;2024-03-07T01:21:33;30.48;;;21.63;;
49193;SDS011;35029;50.804;12.866;2024-03-07T01:24:00;27.65;;;20.45;;
49193;SDS011;35029;50.804;12.866;2024-03-07T01:26:27;28.92;;;19.95;;
49193;SDS011;35029;50.804;12.866;2024-03-07T01:28:54;29.00;;;20.75;;
49193;SDS011;35029;50.804;12.866;2024-03-07T01:31:21;27.90;;;20.67;;
49193;SDS011;35029;50.804;12.866;2024-03-07T01:33:47;30.50;;;22.40;;
49193;SDS011;35029;50.804;12.866;2024-03-07T01:36:13;29.88;;;21.90;;
49193;SDS011;35029;50.804;12.866;2024-03-07T01:38:38;39.17;;;23.55;;
49193;SDS011;35029;50.804;12.866;2024-03-07T01:41:04;32.72;;;24.02;;
49193;SDS011;35029;50.804;12.866;2024-03-07T01:43:30;33.38;;;22.45;;
49193;SDS011;35029;50.804;12.866;2024-03-07T01:45:56;29.02;;;21.77;;
49193;SDS011;35029;50.804;12.866;2024-03-07T01:48:26;32.35;;;23.52;;
49193;SDS011;35029;50.804;12.866;2024-03-07T01:51:02;36.55;;;23.55;;
49193;SDS011;35029;50.804;12.866;2024-03-07T01:53:31;38.30;;;24.80;;
49193;SDS011;35029;50.804;12.866;2024-03-07T01:56:01;37.58;;;23.95;;
49193;SDS011;35029;50.804;12.866;2024-03-07T01:58:30;35.95;;;24.70;;
49193;SDS011;35029;50.804;12.866;2024-03-07T02:00:59;32.25;;;22.58;;
49193;SDS011;35029;50.804;12.866;2024-03-07T02:03:25;35.97;;;25.15;;
49193;SDS011;35029;50.804;12.866;2024-03-07T02:05:51;37.03;;;24.75;;
49193;SDS011;35029;50.804;12.866;2024-03-07T02:08:16;34.85;;;24.02;;
49193;SDS011;35029;50.804;12.866;2024-03-07T02:10:42;31.50;;;23.52;;
49193;SDS011;35029;50.804;12.866;2024-03-07T02:13:08;34.58;;;26.15;;
49193;SDS011;35029;50.804;12.866;2024-03-07T02:15:33;38.25;;;25.80;;
49193;SDS011;35029;50.804;12.866;2024-03-07T02:17:59;39.45;;;26.08;;
49193;SDS011;35029;50.804;12.866;2024-03-07T02:20:25;38.47;;;26.13;;
49193;SDS011;35029;50.804;12.866;2024-03-07T02:22:53;37.15;;;24.67;;
49193;SDS011;35029;50.804;12.866;2024-03-07T02:25:20;40.08;;;26.52;;
49193;SDS011;35029;50.804;12.866;2024-03-07T02:27:45;43.63;;;27.95;;
49193;SDS011;35029;50.804;12.866;2024-03-07T02:30:11;36.60;;;26.75;;
49193;SDS011;35029;50.804;12.866;2024-03-07T02:32:37;39.05;;;25.58;;
49193;SDS011;35029;50.804;12.866;2024-03-07T02:35:04;37.20;;;26.98;;
49193;SDS011;35029;50.804;12.866;2024-03-07T02:37:30;37.35;;;27.30;;
49193;SDS011;35029;50.804;12.866;2024-03-07T02:39:56;41.35;;;28.58;;
49193;SDS011;35029;50.804;12.866;2024-03-07T02:42:21;42.67;;;28.95;;
49193;SDS011;35029;50.804;12.866;2024-03-07T02:44:47;42.53;;;27.50;;
49193;SDS011;35029;50.804;12.866;2024-03-07T02:47:12;40.80;;;28.65;;
49193;SDS011;35029;50.804;12.866;2024-03-07T02:49:38;42.72;;;29.35;;
49193;SDS011;35029;50.804;12.866;2024-03-07T02:52:05;42.03;;;28.65;;
49193;SDS011;35029;50.804;12.866;2024-03-07T02:54:32;41.60;;;29.05;;
49193;SDS011;35029;50.804;12.866;2024-03-07T02:56:58;45.22;;;29.83;;
49193;SDS011;35029;50.804;12.866;2024-03-07T02:59:24;42.35;;;28.88;;
49193;SDS011;35029;50.804;12.866;2024-03-07T03:01:49;45.45;;;28.85;;
49193;SDS011;35029;50.804;12.866;2024-03-07T03:04:16;47.90;;;29.17;;
49193;SDS011;35029;50.804;12.866;2024-03-07T03:06:41;46.75;;;30.02;;
49193;SDS011;35029;50.804;12.866;2024-03-07T03:09:07;46.85;;;29.40;;
49193;SDS011;35029;50.804;12.866;2024-03-07T03:11:38;42.00;;;29.95;;
49193;SDS011;35029;50.804;12.866;2024-03-07T03:14:04;46.08;;;30.38;;
49193;SDS011;35029;50.804;12.866;2024-03-07T03:16:30;46.97;;;30.92;;
49193;SDS011;35029;50.804;12.866;2024-03-07T03:18:56;44.55;;;29.52;;
49193;SDS011;35029;50.804;12.866;2024-03-07T03:21:23;42.45;;;30.08;;
49193;SDS011;35029;50.804;12.866;2024-03-07T03:23:48;42.95;;;29.23;;
49193;SDS011;35029;50.804;12.866;2024-03-07T03:26:14;41.13;;;29.58;;
49193;SDS011;35029;50.804;12.866;2024-03-07T03:28:41;44.15;;;28.83;;
49193;SDS011;35029;50.804;12.866;2024-03-07T03:31:07;41.30;;;28.38;;
49193;SDS011;35029;50.804;12.866;2024-03-07T03:33:33;42.03;;;26.95;;
49193;SDS011;35029;50.804;12.866;2024-03-07T03:35:59;39.92;;;29.00;;
49193;SDS011;35029;50.804;12.866;2024-03-07T03:38:24;42.28;;;29.95;;
49193;SDS011;35029;50.804;12.866;2024-03-07T03:40:50;39.05;;;27.98;;
49193;SDS011;35029;50.804;12.866;2024-03-07T03:43:16;44.95;;;29.55;;
49193;SDS011;35029;50.804;12.866;2024-03-07T03:45:41;37.10;;;27.42;;
49193;SDS011;35029;50.804;12.866;2024-03-07T03:48:08;44.13;;;29.58;;
49193;SDS011;35029;50.804;12.866;2024-03-07T03:50:34;47.13;;;31.15;;
49193;SDS011;35029;50.804;12.866;2024-03-07T03:53:00;50.85;;;31.90;;
49193;SDS011;35029;50.804;12.866;2024-03-07T03:55:27;45.60;;;29.17;;
49193;SDS011;35029;50.804;12.866;2024-03-07T03:57:52;38.50;;;28.15;;
49193;SDS011;35029;50.804;12.866;2024-03-07T04:00:18;44.88;;;29.75;;
49193;SDS011;35029;50.804;12.866;2024-03-07T04:02:44;38.83;;;27.85;;
49193;SDS011;35029;50.804;12.866;2024-03-07T04:05:14;40.92;;;29.35;;
49193;SDS011;35029;50.804;12.866;2024-03-07T04:07:41;42.15;;;29.55;;
49193;SDS011;35029;50.804;12.866;2024-03-07T04:10:08;43.53;;;30.73;;
49193;SDS011;35029;50.804;12.866;2024-03-07T04:12:34;46.45;;;30.95;;
49193;SDS011;35029;50.804;12.866;2024-03-07T04:15:03;43.10;;;29.90;;
49193;SDS011;35029;50.804;12.866;2024-03-07T04:17:30;47.20;;;29.88;;
49193;SDS011;35029;50.804;12.866;2024-03-07T04:19:56;38.20;;;28.13;;
49193;SDS011;35029;50.804;12.866;2024-03-07T04:22:23;40.40;;;29.08;;
49193;SDS011;35029;50.804;12.866;2024-03-07T04:24:49;39.08;;;28.92;;
49193;SDS011;35029;50.804;12.866;2024-03-07T04:27:19;39.28;;;29.27;;
49193;SDS011;35029;50.804;12.866;2024-03-07T04:29:48;40.80;;;30.15;;
49193;SDS011;35029;50.804;12.866;2024-03-07T04:32:14;44.17;;;30.42;;
49193;SDS011;35029;50.804;12.866;2024-03-07T04:34:40;44.55;;;30.45;;
49193;SDS011;35029;50.804;12.866;2024-03-07T04:37:05;49.63;;;32.53;;
49193;SDS011;35029;50.804;12.866;2024-03-07T04:39:31;51.80;;;33.30;;
49193;SDS011;35029;50.804;12.866;2024-03-07T04:41:59;43.92;;;32.92;;
49193;SDS011;35029;50.804;12.866;2024-03-07T04:44:27;52.05;;;33.92;;
49193;SDS011;35029;50.804;12.866;2024-03-07T04:46:53;48.75;;;32.58;;
49193;SDS011;35029;50.804;12.866;2024-03-07T04:49:21;45.92;;;31.70;;
49193;SDS011;35029;50.804;12.866;2024-03-07T04:51:49;48.75;;;31.80;;
49193;SDS011;35029;50.804;12.866;2024-03-07T04:54:18;50.35;;;32.50;;
49193;SDS011;35029;50.804;12.866;2024-03-07T04:56:45;56.38;;;33.05;;
49193;SDS011;35029;50.804;12.866;2024-03-07T04:59:12;48.55;;;34.70;;
49193;SDS011;35029;50.804;12.866;2024-03-07T05:01:38;51.03;;;34.38;;
49193;SDS011;35029;50.804;12.866;2024-03-07T05:04:05;53.53;;;33.67;;
49193;SDS011;35029;50.804;12.866;2024-03-07T05:06:31;51.97;;;33.53;;
49193;SDS011;35029;50.804;12.866;2024-03-07T05:08:59;47.35;;;32.88;;
49193;SDS011;35029;50.804;12.866;2024-03-07T05:11:32;48.83;;;32.15;;
49193;SDS011;35029;50.804;12.866;2024-03-07T05:13:58;48.53;;;33.33;;
49193;SDS011;35029;50.804;12.866;2024-03-07T05:16:25;50.15;;;33.80;;
49193;SDS011;35029;50.804;12.866;2024-03-07T05:18:52;49.67;;;32.55;;
49193;SDS011;35029;50.804;12.866;2024-03-07T05:21:18;50.28;;;33.75;;
49193;SDS011;35029;50.804;12.866;2024-03-07T05:24:06;52.80;;;35.72;;
49193;SDS011;35029;50.804;12.866;2024-03-07T05:26:33;53.10;;;35.08;;
49193;SDS011;35029;50.804;12.866;2024-03-07T05:29:05;55.25;;;34.03;;
49193;SDS011;35029;50.804;12.866;2024-03-07T05:31:35;54.95;;;34.97;;
49193;SDS011;35029;50.804;12.866;2024-03-07T05:34:02;58.03;;;37.53;;
49193;SDS011;35029;50.804;12.866;2024-03-07T05:36:35;56.22;;;36.33;;
49193;SDS011;35029;50.804;12.866;2024-03-07T05:39:09;54.42;;;33.85;;
49193;SDS011;35029;50.804;12.866;2024-03-07T05:41:37;52.28;;;33.38;;
49193;SDS011;35029;50.804;12.866;2024-03-07T05:44:04;50.90;;;34.10;;
49193;SDS011;35029;50.804;12.866;2024-03-07T05:46:38;58.80;;;36.90;;
49193;SDS011;35029;50.804;12.866;2024-03-07T05:49:11;59.30;;;36.47;;
49193;SDS011;35029;50.804;12.866;2024-03-07T05:51:37;56.58;;;36.83;;
49193;SDS011;35029;50.804;12.866;2024-03-07T05:54:03;49.78;;;34.33;;
49193;SDS011;35029;50.804;12.866;2024-03-07T05:56:35;53.17;;;35.17;;
49193;SDS011;35029;50.804;12.866;2024-03-07T05:59:02;53.38;;;36.25;;
49193;SDS011;35029;50.804;12.866;2024-03-07T06:04:01;58.10;;;35.10;;
49193;SDS011;35029;50.804;12.866;2024-03-07T06:06:28;54.90;;;36.60;;
49193;SDS011;35029;50.804;12.866;2024-03-07T06:08:57;54.80;;;36.78;;
49193;SDS011;35029;50.804;12.866;2024-03-07T06:11:23;49.33;;;34.67;;
49193;SDS011;35029;50.804;12.866;2024-03-07T06:13:56;59.75;;;36.90;;
49193;SDS011;35029;50.804;12.866;2024-03-07T06:16:23;55.28;;;37.70;;
49193;SDS011;35029;50.804;12.866;2024-03-07T06:18:49;54.20;;;37.40;;
49193;SDS011;35029;50.804;12.866;2024-03-07T06:21:14;56.83;;;37.88;;
49193;SDS011;35029;50.804;12.866;2024-03-07T06:23:40;51.60;;;36.28;;
49193;SDS011;35029;50.804;12.866;2024-03-07T06:26:05;51.10;;;36.63;;
49193;SDS011;35029;50.804;12.866;2024-03-07T06:28:38;54.53;;;36.38;;
49193;SDS011;35029;50.804;12.866;2024-03-07T06:31:04;51.83;;;35.20;;
49193;SDS011;35029;50.804;12.866;2024-03-07T06:33:33;51.25;;;36.10;;
49193;SDS011;35029;50.804;12.866;2024-03-07T06:35:59;51.13;;;35.30;;
49193;SDS011;35029;50.804;12.866;2024-03-07T06:38:26;51.60;;;35.38;;
49193;SDS011;35029;50.804;12.866;2024-03-07T06:40:53;51.42;;;36.05;;
49193;SDS011;35029;50.804;12.866;2024-03-07T06:43:21;46.90;;;34.28;;
49193;SDS011;35029;50.804;12.866;2024-03-07T06:45:47;47.85;;;34.25;;
49193;SDS011;35029;50.804;12.866;2024-03-07T06:48:13;49.95;;;33.65;;
49193;SDS011;35029;50.804;12.866;2024-03-07T06:50:40;47.83;;;31.90;;
49193;SDS011;35029;50.804;12.866;2024-03-07T06:53:06;43.67;;;31.20;;
49193;SDS011;35029;50.804;12.866;2024-03-07T06:55:32;43.72;;;30.77;;
49193;SDS011;35029;50.804;12.866;2024-03-07T06:57:59;42.25;;;29.88;;
49193;SDS011;35029;50.804;12.866;2024-03-07T07:00:25;45.72;;;30.10;;
49193;SDS011;35029;50.804;12.866;2024-03-07T07:02:52;42.92;;;29.35;;
49193;SDS011;35029;50.804;12.866;2024-03-07T07:05:21;42.20;;;31.15;;
49193;SDS011;35029;50.804;12.866;2024-03-07T07:07:47;48.95;;;30.15;;
49193;SDS011;35029;50.804;12.866;2024-03-07T07:10:13;38.72;;;27.50;;
49193;SDS011;35029;50.804;12.866;2024-03-07T07:12:49;38.03;;;27.63;;
49193;SDS011;35029;50.804;12.866;2024-03-07T07:15:20;36.33;;;27.30;;
49193;SDS011;35029;50.804;12.866;2024-03-07T07:17:46;38.53;;;29.27;;
49193;SDS011;35029;50.804;12.866;2024-03-07T07:20:14;41.85;;;29.65;;
49193;SDS011;35029;50.804;12.866;2024-03-07T07:22:40;43.05;;;28.55;;
49193;SDS011;35029;50.804;12.866;2024-03-07T07:25:07;40.35;;;29.45;;
49193;SDS011;35029;50.804;12.866;2024-03-07T07:27:41;41.15;;;28.92;;
49193;SDS011;35029;50.804;12.866;2024-03-07T07:30:21;43.80;;;29.13;;
49193;SDS011;35029;50.804;12.866;2024-03-07T07:32:52;41.45;;;29.67;;
49193;SDS011;35029;50.804;12.866;2024-03-07T07:35:21;39.35;;;28.77;;
49193;SDS011;35029;50.804;12.866;2024-03-07T07:37:48;44.30;;;28.85;;
49193;SDS011;35029;50.804;12.866;2024-03-07T07:40:16;39.50;;;27.63;;
49193;SDS011;35029;50.804;12.866;2024-03-07T07:42:51;38.80;;;27.92;;
49193;SDS011;35029;50.804;12.866;2024-03-07T07:45:19;36.42;;;26.20;;
49193;SDS011;35029;50.804;12.866;2024-03-07T07:47:48;35.67;;;24.70;;
49193;SDS011;35029;50.804;12.866;2024-03-07T07:50:18;34.45;;;25.30;;
49193;SDS011;35029;50.804;12.866;2024-03-07T07:55:15;30.90;;;23.00;;
49193;SDS011;35029;50.804;12.866;2024-03-07T07:57:49;33.35;;;25.10;;
49193;SDS011;35029;50.804;12.866;2024-03-07T08:00:18;33.00;;;22.95;;
49193;SDS011;35029;50.804;12.866;2024-03-07T08:02:58;34.22;;;23.67;;
49193;SDS011;35029;50.804;12.866;2024-03-07T08:05:25;32.80;;;22.50;;
49193;SDS011;35029;50.804;12.866;2024-03-07T08:08:00;36.22;;;23.67;;
49193;SDS011;35029;50.804;12.866;2024-03-07T08:10:30;34.00;;;22.60;;
49193;SDS011;35029;50.804;12.866;2024-03-07T08:12:59;33.40;;;22.00;;
49193;SDS011;35029;50.804;12.866;2024-03-07T08:15:27;32.97;;;22.85;;
49193;SDS011;35029;50.804;12.866;2024-03-07T08:17:53;28.50;;;17.40;;
49193;SDS011;35029;50.804;12.866;2024-03-07T08:20:23;27.58;;;20.13;;
49193;SDS011;35029;50.804;12.866;2024-03-07T08:22:51;31.80;;;22.30;;
49193;SDS011;35029;50.804;12.866;2024-03-07T08:25:21;27.67;;;22.10;;
49193;SDS011;35029;50.804;12.866;2024-03-07T08:27:51;29.40;;;21.92;;
49193;SDS011;35029;50.804;12.866;2024-03-07T08:30:18;33.67;;;22.67;;
49193;SDS011;35029;50.804;12.866;2024-03-07T08:32:44;31.00;;;21.65;;
49193;SDS011;35029;50.804;12.866;2024-03-07T08:35:11;30.45;;;23.02;;
49193;SDS011;35029;50.804;12.866;2024-03-07T08:37:38;29.73;;;22.80;;
49193;SDS011;35029;50.804;12.866;2024-03-07T08:40:05;34.88;;;23.02;;
49193;SDS011;35029;50.804;12.866;2024-03-07T08:42:33;39.65;;;24.45;;
49193;SDS011;35029;50.804;12.866;2024-03-07T08:45:00;33.92;;;24.63;;
49193;SDS011;35029;50.804;12.866;2024-03-07T08:47:30;34.17;;;24.88;;
49193;SDS011;35029;50.804;12.866;2024-03-07T08:49:59;32.80;;;24.55;;
49193;SDS011;35029;50.804;12.866;2024-03-07T08:52:25;35.30;;;23.77;;
49193;SDS011;35029;50.804;12.866;2024-03-07T08:54:51;32.55;;;23.98;;
49193;SDS011;35029;50.804;12.866;2024-03-07T08:57:17;32.75;;;24.27;;
49193;SDS011;35029;50.804;12.866;2024-03-07T08:59:43;30.23;;;24.05;;
49193;SDS011;35029;50.804;12.866;2024-03-07T09:02:09;31.98;;;23.15;;
49193;SDS011;35029;50.804;12.866;2024-03-07T09:04:36;30.40;;;21.25;;
49193;SDS011;35029;50.804;12.866;2024-03-07T09:07:03;27.58;;;21.65;;
49193;SDS011;35029;50.804;12.866;2024-03-07T09:09:31;30.50;;;20.65;;
49193;SDS011;35029;50.804;12.866;2024-03-07T09:11:58;31.15;;;23.33;;
49193;SDS011;35029;50.804;12.866;2024-03-07T09:14:23;33.35;;;23.50;;
49193;SDS011;35029;50.804;12.866;2024-03-07T09:16:49;30.17;;;21.92;;
49193;SDS011;35029;50.804;12.866;2024-03-07T09:19:16;29.95;;;19.90;;
49193;SDS011;35029;50.804;12.866;2024-03-07T09:21:48;30.00;;;19.35;;
49193;SDS011;35029;50.804;12.866;2024-03-07T09:24:15;26.15;;;18.48;;
49193;SDS011;35029;50.804;12.866;2024-03-07T09:26:41;25.38;;;17.55;;
49193;SDS011;35029;50.804;12.866;2024-03-07T09:29:07;21.67;;;16.52;;
49193;SDS011;35029;50.804;12.866;2024-03-07T09:31:33;21.85;;;16.35;;
49193;SDS011;35029;50.804;12.866;2024-03-07T09:33:58;20.17;;;13.77;;
49193;SDS011;35029;50.804;12.866;2024-03-07T09:36:24;23.83;;;15.05;;
49193;SDS011;35029;50.804;12.866;2024-03-07T09:38:50;20.38;;;14.73;;
49193;SDS011;35029;50.804;12.866;2024-03-07T09:41:16;22.17;;;14.98;;
49193;SDS011;35029;50.804;12.866;2024-03-07T09:43:48;20.42;;;15.15;;
49193;SDS011;35029;50.804;12.866;2024-03-07T09:46:18;22.05;;;14.82;;
49193;SDS011;35029;50.804;12.866;2024-03-07T09:48:46;21.70;;;14.75;;
49193;SDS011;35029;50.804;12.866;2024-03-07T09:51:12;22.05;;;15.27;;
49193;SDS011;35029;50.804;12.866;2024-03-07T09:53:49;23.90;;;14.90;;
49193;SDS011;35029;50.804;12.866;2024-03-07T09:56:20;21.17;;;14.90;;
49193;SDS011;35029;50.804;12.866;2024-03-07T09:58:49;24.55;;;15.40;;
49193;SDS011;35029;50.804;12.866;2024-03-07T10:01:22;24.58;;;15.55;;
49193;SDS011;35029;50.804;12.866;2024-03-07T10:03:57;24.77;;;15.88;;
49193;SDS011;35029;50.804;12.866;2024-03-07T10:06:28;22.30;;;16.02;;
49193;SDS011;35029;50.804;12.866;2024-03-07T10:08:54;24.42;;;17.08;;
49193;SDS011;35029;50.804;12.866;2024-03-07T10:11:21;25.75;;;17.63;;
49193;SDS011;35029;50.804;12.866;2024-03-07T10:13:48;24.35;;;16.15;;
49193;SDS011;35029;50.804;12.866;2024-03-07T10:16:17;24.67;;;16.02;;
49193;SDS011;35029;50.804;12.866;2024-03-07T10:18:43;25.73;;;16.05;;
49193;SDS011;35029;50.804;12.866;2024-03-07T10:21:13;24.63;;;16.42;;
49193;SDS011;35029;50.804;12.866;2024-03-07T10:23:38;23.70;;;17.65;;
49193;SDS011;35029;50.804;12.866;2024-03-07T10:26:05;24.05;;;15.27;;
49193;SDS011;35029;50.804;12.866;2024-03-07T10:28:31;25.88;;;15.60;;
49193;SDS011;35029;50.804;12.866;2024-03-07T10:30:58;23.15;;;15.38;;
49193;SDS011;35029;50.804;12.866;2024-03-07T10:33:28;22.13;;;15.55;;
49193;SDS011;35029;50.804;12.866;2024-03-07T10:35:56;22.65;;;16.33;;
49193;SDS011;35029;50.804;12.866;2024-03-07T10:38:21;20.08;;;14.85;;
49193;SDS011;35029;50.804;12.866;2024-03-07T10:40:47;19.27;;;15.27;;
49193;SDS011;35029;50.804;12.866;2024-03-07T10:43:19;20.88;;;14.55;;
49193;SDS011;35029;50.804;12.866;2024-03-07T10:45:47;24.80;;;15.55;;
49193;SDS011;35029;50.804;12.866;2024-03-07T10:48:16;22.30;;;16.17;;
49193;SDS011;35029;50.804;12.866;2024-03-07T10:56:02;20.50;;;14.75;;
49193;SDS011;35029;50.804;12.866;2024-03-07T11:01:15;22.13;;;15.68;;
49193;SDS011;35029;50.804;12.866;2024-03-07T11:03:43;19.80;;;14.10;;
49193;SDS011;35029;50.804;12.866;2024-03-07T11:06:10;22.17;;;14.57;;
49193;SDS011;35029;50.804;12.866;2024-03-07T11:08:36;20.75;;;14.38;;
49193;SDS011;35029;50.804;12.866;2024-03-07T11:11:03;21.10;;;14.52;;
49193;SDS011;35029;50.804;12.866;2024-03-07T11:13:32;22.15;;;15.65;;
49193;SDS011;35029;50.804;12.866;2024-03-07T11:15:59;19.15;;;14.10;;
49193;SDS011;35029;50.804;12.866;2024-03-07T11:18:26;21.90;;;15.25;;
49193;SDS011;35029;50.804;12.866;2024-03-07T11:20:52;20.65;;;14.70;;
49193;SDS011;35029;50.804;12.866;2024-03-07T11:23:29;20.90;;;15.10;;
49193;SDS011;35029;50.804;12.866;2024-03-07T11:26:04;23.83;;;16.08;;
49193;SDS011;35029;50.804;12.866;2024-03-07T11:28:34;21.35;;;15.52;;
49193;SDS011;35029;50.804;12.866;2024-03-07T11:36:43;21.15;;;15.02;;
49193;SDS011;35029;50.804;12.866;2024-03-07T11:42:09;23.05;;;16.45;;
49193;SDS011;35029;50.804;12.866;2024-03-07T11:44:45;17.73;;;14.32;;
49193;SDS011;35029;50.804;12.866;2024-03-07T11:47:12;21.30;;;15.13;;
49193;SDS011;35029;50.804;12.866;2024-03-07T11:49:38;23.48;;;15.02;;
49193;SDS011;35029;50.804;12.866;2024-03-07T11:52:04;21.95;;;15.13;;
49193;SDS011;35029;50.804;12.866;2024-03-07T11:54:37;22.05;;;15.23;;
49193;SDS011;35029;50.804;12.866;2024-03-07T11:57:11;20.10;;;14.02;;
49193;SDS011;35029;50.804;12.866;2024-03-07T11:59:41;20.08;;;15.00;;
49193;SDS011;35029;50.804;12.866;2024-03-07T12:02:14;19.05;;;14.43;;
49193;SDS011;35029;50.804;12.866;2024-03-07T12:04:43;20.65;;;14.77;;
49193;SDS011;35029;50.804;12.866;2024-03-07T12:07:09;19.38;;;15.25;;
49193;SDS011;35029;50.804;12.866;2024-03-07T12:09:39;21.58;;;14.77;;
49193;SDS011;35029;50.804;12.866;2024-03-07T12:12:05;20.95;;;14.18;;
49193;SDS011;35029;50.804;12.866;2024-03-07T12:14:31;21.02;;;15.13;;
49193;SDS011;35029;50.804;12.866;2024-03-07T12:16:59;22.45;;;15.30;;
49193;SDS011;35029;50.804;12.866;2024-03-07T12:19:26;19.15;;;14.25;;
49193;SDS011;35029;50.804;12.866;2024-03-07T12:21:56;19.13;;;14.45;;
49193;SDS011;35029;50.804;12.866;2024-03-07T12:24:23;19.30;;;14.13;;
49193;SDS011;35029;50.804;12.866;2024-03-07T12:26:48;21.13;;;14.43;;
49193;SDS011;35029;50.804;12.866;2024-03-07T12:29:14;17.05;;;13.18;;
49193;SDS011;35029;50.804;12.866;2024-03-07T12:31:43;20.55;;;15.07;;
49193;SDS011;35029;50.804;12.866;2024-03-07T12:34:09;19.17;;;14.43;;
49193;SDS011;35029;50.804;12.866;2024-03-07T12:36:35;22.52;;;15.75;;
49193;SDS011;35029;50.804;12.866;2024-03-07T12:41:51;21.02;;;15.13;;
49193;SDS011;35029;50.804;12.866;2024-03-07T12:44:20;17.27;;;13.32;;
49193;SDS011;35029;50.804;12.866;2024-03-07T12:46:47;20.23;;;14.25;;
49193;SDS011;35029;50.804;12.866;2024-03-07T12:49:16;20.63;;;15.05;;
49193;SDS011;35029;50.804;12.866;2024-03-07T12:51:42;20.30;;;14.38;;
49193;SDS011;35029;50.804;12.866;2024-03-07T12:54:08;17.17;;;13.45;;
49193;SDS011;35029;50.804;12.866;2024-03-07T12:56:37;17.38;;;13.73;;
49193;SDS011;35029;50.804;12.866;2024-03-07T12:59:03;16.73;;;13.70;;
49193;SDS011;35029;50.804;12.866;2024-03-07T13:01:29;21.80;;;14.82;;
49193;SDS011;35029;50.804;12.866;2024-03-07T13:03:56;20.80;;;13.25;;
49193;SDS011;35029;50.804;12.866;2024-03-07T13:06:22;20.27;;;14.65;;
49193;SDS011;35029;50.804;12.866;2024-03-07T13:08:50;19.63;;;14.75;;
49193;SDS011;35029;50.804;12.866;2024-03-07T13:11:16;19.27;;;14.60;;
49193;SDS011;35029;50.804;12.866;2024-03-07T13:13:42;17.98;;;13.48;;
49193;SDS011;35029;50.804;12.866;2024-03-07T13:16:07;17.55;;;14.93;;
49193;SDS011;35029;50.804;12.866;2024-03-07T13:18:35;19.60;;;14.35;;
49193;SDS011;35029;50.804;12.866;2024-03-07T13:21:03;19.67;;;15.27;;
49193;SDS011;35029;50.804;12.866;2024-03-07T13:23:29;23.67;;;15.07;;
49193;SDS011;35029;50.804;12.866;2024-03-07T13:25:54;19.92;;;15.07;;
49193;SDS011;35029;50.804;12.866;2024-03-07T13:28:21;20.35;;;15.35;;
49193;SDS011;35029;50.804;12.866;2024-03-07T13:30:49;23.33;;;15.90;;
49193;SDS011;35029;50.804;12.866;2024-03-07T13:33:15;21.05;;;15.10;;
49193;SDS011;35029;50.804;12.866;2024-03-07T13:35:41;25.70;;;15.38;;
49193;SDS011;35029;50.804;12.866;2024-03-07T13:38:08;22.00;;;15.63;;
49193;SDS011;35029;50.804;12.866;2024-03-07T13:40:35;22.42;;;15.75;;
49193;SDS011;35029;50.804;12.866;2024-03-07T13:43:03;25.02;;;18.08;;
49193;SDS011;35029;50.804;12.866;2024-03-07T13:45:31;25.60;;;18.92;;
49193;SDS011;35029;50.804;12.866;2024-03-07T13:48:09;26.33;;;19.95;;
49193;SDS011;35029;50.804;12.866;2024-03-07T13:50:38;22.85;;;18.05;;
49193;SDS011;35029;50.804;12.866;2024-03-07T13:53:06;24.65;;;19.38;;
49193;SDS011;35029;50.804;12.866;2024-03-07T13:58:15;22.70;;;17.13;;
49193;SDS011;35029;50.804;12.866;2024-03-07T14:00:54;26.90;;;18.70;;
49193;SDS011;35029;50.804;12.866;2024-03-07T14:29:12;23.83;;;19.65;;
49193;SDS011;35029;50.804;12.866;2024-03-07T14:32:07;25.98;;;20.25;;
49193;SDS011;35029;50.804;12.866;2024-03-07T14:37:25;25.47;;;18.90;;
49193;SDS011;35029;50.804;12.866;2024-03-07T14:39:58;26.13;;;19.90;;
49193;SDS011;35029;50.804;12.866;2024-03-07T14:42:45;25.00;;;19.38;;
49193;SDS011;35029;50.804;12.866;2024-03-07T14:45:15;26.45;;;18.45;;
49193;SDS011;35029;50.804;12.866;2024-03-07T14:47:46;25.70;;;18.70;;
49193;SDS011;35029;50.804;12.866;2024-03-07T14:50:14;25.55;;;18.83;;
49193;SDS011;35029;50.804;12.866;2024-03-07T14:52:44;26.95;;;19.85;;
49193;SDS011;35029;50.804;12.866;2024-03-07T14:55:10;23.38;;;17.52;;
49193;SDS011;35029;50.804;12.866;2024-03-07T14:57:40;27.10;;;19.50;;
49193;SDS011;35029;50.804;12.866;2024-03-07T15:02:46;26.90;;;18.00;;
49193;SDS011;35029;50.804;12.866;2024-03-07T15:05:14;23.25;;;18.17;;
49193;SDS011;35029;50.804;12.866;2024-03-07T15:07:47;22.95;;;18.50;;
49193;SDS011;35029;50.804;12.866;2024-03-07T15:10:21;26.48;;;17.92;;
49193;SDS011;35029;50.804;12.866;2024-03-07T15:12:52;25.98;;;18.58;;